createdAt,value
2018-10-11T00:00:02.730Z,-63
2018-10-11T00:02:28.951Z,-63
2018-10-11T00:04:55.173Z,-62
2018-10-11T00:07:21.394Z,-62
2018-10-11T00:09:47.614Z,-62
2018-10-11T00:12:13.838Z,-63
2018-10-11T00:14:40.058Z,-62
2018-10-11T00:17:06.279Z,-76
2018-10-11T00:19:32.499Z,-76
2018-10-11T00:21:58.732Z,-76
2018-10-11T00:24:24.975Z,-77
2018-10-11T00:26:51.198Z,-76
2018-10-11T00:29:17.427Z,-76
2018-10-11T00:31:43.654Z,-76
2018-10-11T00:34:09.869Z,-77
2018-10-11T00:36:36.091Z,-77
2018-10-11T00:39:02.318Z,-77
2018-10-11T00:41:28.549Z,-77
2018-10-11T00:43:54.761Z,-77
2018-10-11T00:46:20.999Z,-77
2018-10-11T00:48:47.842Z,-62
2018-10-11T00:51:14.089Z,-62
2018-10-11T00:53:40.313Z,-62
2018-10-11T00:56:06.561Z,-62
2018-10-11T00:58:32.790Z,-62
2018-10-11T01:00:59.008Z,-62
2018-10-11T01:03:26.015Z,-75
2018-10-11T01:05:52.239Z,-76
2018-10-11T01:08:18.463Z,-77
2018-10-11T01:10:44.690Z,-77
2018-10-11T01:13:10.925Z,-77
2018-10-11T01:15:37.176Z,-76
2018-10-11T01:18:03.391Z,-77
2018-10-11T01:20:29.609Z,-62
2018-10-11T01:22:55.831Z,-62
2018-10-11T01:25:22.064Z,-62
2018-10-11T01:27:48.292Z,-63
2018-10-11T01:30:14.561Z,-62
2018-10-11T01:32:40.834Z,-62
2018-10-11T01:35:07.822Z,-62
2018-10-11T01:37:34.067Z,-63
2018-10-11T01:40:00.290Z,-62
2018-10-11T01:42:26.527Z,-62
2018-10-11T01:44:52.758Z,-62
2018-10-11T01:47:18.995Z,-62
2018-10-11T01:49:45.295Z,-70
2018-10-11T01:52:11.526Z,-62
2018-10-11T01:54:37.759Z,-62
2018-10-11T01:57:03.976Z,-62
2018-10-11T01:59:30.206Z,-62
2018-10-11T02:01:56.423Z,-62
2018-10-11T02:04:22.631Z,-62
2018-10-11T02:06:48.843Z,-62
2018-10-11T02:09:15.117Z,-62
2018-10-11T02:11:41.318Z,-62
2018-10-11T02:14:07.571Z,-63
2018-10-11T02:16:33.787Z,-62
2018-10-11T02:19:00.016Z,-63
2018-10-11T02:21:26.223Z,-76
2018-10-11T02:23:53.204Z,-76
2018-10-11T02:26:19.427Z,-76
2018-10-11T02:28:45.656Z,-76
2018-10-11T02:31:11.932Z,-76
2018-10-11T02:33:38.311Z,-76
2018-10-11T02:36:04.551Z,-76
2018-10-11T02:38:30.775Z,-63
2018-10-11T02:40:56.989Z,-62
2018-10-11T02:43:23.214Z,-62
2018-10-11T02:45:50.204Z,-62
2018-10-11T02:48:16.621Z,-62
2018-10-11T02:50:42.841Z,-63
2018-10-11T02:53:09.152Z,-63
2018-10-11T02:55:35.378Z,-62
2018-10-11T02:58:01.598Z,-62
2018-10-11T03:00:27.816Z,-62
2018-10-11T03:02:54.060Z,-62
2018-10-11T03:05:20.300Z,-62
2018-10-11T03:07:46.526Z,-63
2018-10-11T03:10:12.754Z,-62
2018-10-11T03:12:38.978Z,-63
2018-10-11T03:15:05.209Z,-62
2018-10-11T03:17:31.430Z,-62
2018-10-11T03:19:57.657Z,-62
2018-10-11T03:22:23.881Z,-62
2018-10-11T03:27:22.361Z,-76
2018-10-11T03:29:48.606Z,-76
2018-10-11T03:32:14.833Z,-77
2018-10-11T03:34:41.063Z,-76
2018-10-11T03:37:07.285Z,-77
2018-10-11T03:39:33.505Z,-76
2018-10-11T03:44:31.371Z,-76
2018-10-11T03:46:57.593Z,-76
2018-10-11T03:49:23.822Z,-76
2018-10-11T03:51:50.030Z,-76
2018-10-11T03:54:16.261Z,-76
2018-10-11T03:56:42.486Z,-76
2018-10-11T03:59:08.698Z,-76
2018-10-11T04:01:34.937Z,-76
2018-10-11T04:04:01.167Z,-76
2018-10-11T04:06:27.339Z,-76
2018-10-11T04:08:54.343Z,-76
2018-10-11T04:11:20.709Z,-62
2018-10-11T04:13:46.873Z,-63
2018-10-11T04:16:13.799Z,-62
2018-10-11T04:18:39.971Z,-62
2018-10-11T04:21:06.222Z,-62
2018-10-11T04:23:32.403Z,-62
2018-10-11T04:25:59.383Z,-76
2018-10-11T04:28:25.522Z,-77
2018-10-11T04:33:24.034Z,-76
2018-10-11T04:35:50.202Z,-76
2018-10-11T04:38:16.375Z,-77
2018-10-11T04:40:42.535Z,-76
2018-10-11T04:43:08.826Z,-76
2018-10-11T04:45:34.887Z,-77
2018-10-11T04:48:01.055Z,-77
2018-10-11T04:50:27.231Z,-77
2018-10-11T04:52:53.402Z,-76
2018-10-11T04:57:52.833Z,-62
2018-10-11T05:00:19.019Z,-77
2018-10-11T05:02:46.727Z,-76
2018-10-11T05:05:12.936Z,-76
2018-10-11T05:07:40.594Z,-77
2018-10-11T05:10:06.749Z,-77
2018-10-11T05:12:32.932Z,-62
2018-10-11T05:15:00.602Z,-63
2018-10-11T05:17:26.901Z,-63
2018-10-11T05:19:52.979Z,-62
2018-10-11T05:22:19.162Z,-62
2018-10-11T05:24:45.315Z,-63
2018-10-11T05:27:11.488Z,-62
2018-10-11T05:29:37.659Z,-62
2018-10-11T05:32:03.822Z,-63
2018-10-11T05:34:29.994Z,-62
2018-10-11T05:36:56.159Z,-62
2018-10-11T05:39:22.318Z,-62
2018-10-11T05:41:48.495Z,-62
2018-10-11T05:44:14.677Z,-62
2018-10-11T05:46:40.847Z,-62
2018-10-11T05:49:07.010Z,-62
2018-10-11T05:51:33.180Z,-62
2018-10-11T05:53:59.346Z,-62
2018-10-11T05:56:26.295Z,-62
2018-10-11T05:58:52.467Z,-76
2018-10-11T06:01:18.649Z,-76
2018-10-11T06:03:45.583Z,-76
2018-10-11T06:06:11.763Z,-76
2018-10-11T06:08:37.939Z,-77
2018-10-11T06:11:04.114Z,-76
2018-10-11T06:13:30.507Z,-67
2018-10-11T06:15:56.676Z,-62
2018-10-11T06:18:22.921Z,-62
2018-10-11T06:20:49.089Z,-62
2018-10-11T06:23:16.030Z,-62
2018-10-11T06:25:42.203Z,-62
2018-10-11T06:28:08.372Z,-62
2018-10-11T06:33:06.894Z,-76
2018-10-11T06:35:33.074Z,-76
2018-10-11T06:37:59.236Z,-76
2018-10-11T06:42:57.215Z,-76
2018-10-11T06:45:23.379Z,-63
2018-10-11T06:47:49.547Z,-62
2018-10-11T06:50:15.732Z,-62
2018-10-11T06:52:41.894Z,-62
2018-10-11T06:55:08.055Z,-63
2018-10-11T06:57:34.210Z,-62
2018-10-11T07:00:00.376Z,-73
2018-10-11T07:02:26.606Z,-62
2018-10-11T07:04:52.830Z,-62
2018-10-11T07:07:19.049Z,-62
2018-10-11T07:09:45.962Z,-62
2018-10-11T07:12:12.896Z,-62
2018-10-11T07:14:39.062Z,-62
2018-10-11T07:17:05.229Z,-76
2018-10-11T07:19:31.483Z,-76
2018-10-11T07:21:57.614Z,-76
2018-10-11T07:24:23.779Z,-76
2018-10-11T07:26:49.955Z,-76
2018-10-11T07:29:16.123Z,-76
2018-10-11T07:31:42.279Z,-63
2018-10-11T07:34:08.442Z,-62
2018-10-11T07:36:34.611Z,-62
2018-10-11T07:39:00.771Z,-62
2018-10-11T07:41:26.938Z,-62
2018-10-11T07:43:53.118Z,-62
2018-10-11T07:46:19.280Z,-62
2018-10-11T07:48:45.451Z,-77
2018-10-11T07:51:11.627Z,-76
2018-10-11T07:53:37.805Z,-76
2018-10-11T07:56:03.987Z,-76
2018-10-11T07:58:30.161Z,-77
2018-10-11T08:00:56.323Z,-76
2018-10-11T08:03:23.336Z,-76
2018-10-11T08:05:49.484Z,-76
2018-10-11T08:08:15.665Z,-76
2018-10-11T08:10:42.129Z,-76
2018-10-11T08:13:08.815Z,-76
2018-10-11T08:15:35.006Z,-76
2018-10-11T08:18:01.495Z,-63
2018-10-11T08:20:27.422Z,-62
2018-10-11T08:22:54.344Z,-62
2018-10-11T08:25:22.215Z,-62
2018-10-11T08:27:48.231Z,-62
2018-10-11T08:30:15.912Z,-62
2018-10-11T08:32:42.490Z,-62
2018-10-11T08:35:08.318Z,-77
2018-10-11T08:37:34.525Z,-76
2018-10-11T08:40:00.710Z,-76
2018-10-11T08:42:26.890Z,-76
2018-10-11T08:44:53.084Z,-76
2018-10-11T08:47:20.287Z,-76
2018-10-11T08:49:46.460Z,-77
2018-10-11T08:52:12.626Z,-77
2018-10-11T08:54:38.809Z,-76
2018-10-11T08:57:05.757Z,-76
2018-10-11T08:59:31.948Z,-76
2018-10-11T09:01:58.108Z,-76
2018-10-11T09:04:24.288Z,-76
2018-10-11T09:06:50.453Z,-76
2018-10-11T09:09:16.618Z,-76
2018-10-11T09:11:42.786Z,-76
2018-10-11T09:14:08.947Z,-77
2018-10-11T09:16:35.891Z,-76
2018-10-11T09:19:02.054Z,-76
2018-10-11T09:21:28.223Z,-76
2018-10-11T09:23:54.386Z,-77
2018-10-11T09:28:52.521Z,-76
2018-10-11T09:33:50.374Z,-76
2018-10-11T09:36:16.573Z,-77
2018-10-11T09:38:42.735Z,-77
2018-10-11T09:41:08.897Z,-76
2018-10-11T09:43:35.071Z,-77
2018-10-11T09:46:02.005Z,-77
2018-10-11T09:48:28.178Z,-77
2018-10-11T09:50:54.359Z,-62
2018-10-11T09:53:21.289Z,-62
2018-10-11T09:55:47.450Z,-62
2018-10-11T09:58:13.710Z,-62
2018-10-11T10:00:39.938Z,-62
2018-10-11T10:03:06.110Z,-62
2018-10-11T10:05:32.265Z,-62
2018-10-11T10:07:58.537Z,-63
2018-10-11T10:10:24.713Z,-62
2018-10-11T10:12:51.680Z,-62
2018-10-11T10:15:17.855Z,-62
2018-10-11T10:17:44.044Z,-76
2018-10-11T10:20:10.218Z,-76
2018-10-11T10:22:36.383Z,-77
2018-10-11T10:25:02.549Z,-76
2018-10-11T10:30:00.731Z,-77
2018-10-11T10:32:26.895Z,-77
2018-10-11T10:34:53.835Z,-77
2018-10-11T10:37:20.012Z,-76
2018-10-11T10:39:46.191Z,-77
2018-10-11T10:42:12.362Z,-77
2018-10-11T10:44:38.535Z,-77
2018-10-11T10:47:04.709Z,-77
2018-10-11T10:52:02.393Z,-77
2018-10-11T10:54:28.568Z,-62
2018-10-11T10:56:54.754Z,-62
2018-10-11T10:59:20.927Z,-62
2018-10-11T11:01:47.105Z,-62
2018-10-11T11:04:13.286Z,-62
2018-10-11T11:06:39.462Z,-62
2018-10-11T11:09:05.626Z,-63
2018-10-11T11:11:31.855Z,-63
2018-10-11T11:13:58.041Z,-62
2018-10-11T11:16:24.305Z,-62
2018-10-11T11:18:50.504Z,-62
2018-10-11T11:21:16.669Z,-63
2018-10-11T11:23:43.683Z,-73
2018-10-11T11:26:09.842Z,-77
2018-10-11T11:31:08.279Z,-77
2018-10-11T11:33:34.394Z,-76
2018-10-11T11:36:01.325Z,-77
2018-10-11T11:38:28.999Z,-77
2018-10-11T11:40:55.162Z,-77
2018-10-11T11:43:21.333Z,-77
2018-10-11T11:45:48.351Z,-77
2018-10-11T11:48:14.491Z,-77
2018-10-11T11:50:40.848Z,-77
2018-10-11T11:53:06.896Z,-77
2018-10-11T11:55:33.130Z,-77
2018-10-11T11:57:59.341Z,-77
2018-10-11T12:00:25.523Z,-77
2018-10-11T12:02:51.739Z,-76
2018-10-11T12:05:18.667Z,-77
2018-10-11T12:07:44.834Z,-77
2018-10-11T12:10:11.860Z,-67
2018-10-11T12:12:38.034Z,-62
2018-10-11T12:15:04.198Z,-63
2018-10-11T12:17:30.408Z,-62
2018-10-11T12:19:56.585Z,-62
2018-10-11T12:22:22.760Z,-62
2018-10-11T12:24:49.714Z,-62
2018-10-11T12:27:15.891Z,-63
2018-10-11T12:29:42.058Z,-62
2018-10-11T12:32:08.218Z,-62
2018-10-11T12:34:34.397Z,-63
2018-10-11T12:37:00.565Z,-62
2018-10-11T12:39:26.730Z,-62
2018-10-11T12:41:52.909Z,-63
2018-10-11T12:44:19.845Z,-63
2018-10-11T12:46:46.012Z,-62
2018-10-11T12:49:12.244Z,-62
2018-10-11T12:51:39.176Z,-62
2018-10-11T12:54:05.329Z,-62
2018-10-11T12:56:33.753Z,-62
2018-10-11T12:58:59.844Z,-77
2018-10-11T13:01:26.024Z,-77
2018-10-11T13:03:52.202Z,-77
2018-10-11T13:06:18.372Z,-77
2018-10-11T13:08:44.548Z,-77
2018-10-11T13:11:10.732Z,-76
2018-10-11T13:13:38.465Z,-77
2018-10-11T13:16:05.094Z,-77
2018-10-11T13:18:30.864Z,-77
2018-10-11T13:20:57.065Z,-77
2018-10-11T13:23:23.994Z,-77
2018-10-11T13:25:50.159Z,-77
2018-10-11T13:28:16.331Z,-63
2018-10-11T13:30:42.519Z,-62
2018-10-11T13:33:08.691Z,-62
2018-10-11T13:35:34.889Z,-62
2018-10-11T13:38:01.045Z,-62
2018-10-11T13:40:27.267Z,-62
2018-10-11T13:42:53.414Z,-62
2018-10-11T13:45:19.587Z,-77
2018-10-11T13:47:45.769Z,-77
2018-10-11T13:50:11.940Z,-77
2018-10-11T13:52:38.112Z,-77
2018-10-11T13:55:09.648Z,-77
2018-10-11T13:57:31.371Z,-77
2018-10-11T13:59:56.700Z,-62
2018-10-11T14:02:22.866Z,-62
2018-10-11T14:04:49.037Z,-62
2018-10-11T14:07:15.240Z,-62
2018-10-11T14:09:41.427Z,-62
2018-10-11T14:12:07.579Z,-62
2018-10-11T14:14:33.754Z,-63
2018-10-11T14:16:59.977Z,-62
2018-10-11T14:19:26.160Z,-63
2018-10-11T14:21:52.313Z,-62
2018-10-11T14:24:18.494Z,-62
2018-10-11T14:26:45.433Z,-62
2018-10-11T14:29:12.370Z,-62
2018-10-11T14:31:38.579Z,-77
2018-10-11T14:34:04.755Z,-77
2018-10-11T14:36:30.953Z,-77
2018-10-11T14:38:57.126Z,-77
2018-10-11T14:41:23.297Z,-77
2018-10-11T14:43:50.990Z,-77
2018-10-11T14:46:17.947Z,-63
2018-10-11T14:48:44.159Z,-62
2018-10-11T14:51:10.379Z,-62
2018-10-11T14:53:36.539Z,-62
2018-10-11T14:56:02.718Z,-63
2018-10-11T14:58:28.902Z,-62
2018-10-11T15:00:55.132Z,-64
2018-10-11T15:03:21.394Z,-77
2018-10-11T15:05:47.551Z,-78
2018-10-11T15:13:18.358Z,-77
2018-10-11T15:18:16.338Z,-77
2018-10-11T15:20:42.523Z,-77
2018-10-11T15:23:08.690Z,-77
2018-10-11T15:25:35.613Z,-77
2018-10-11T15:28:01.875Z,-77
2018-10-11T15:30:28.062Z,-77
2018-10-11T15:32:54.243Z,-77
2018-10-11T15:35:20.429Z,-77
2018-10-11T15:37:46.596Z,-77
2018-10-11T15:40:12.752Z,-77
2018-10-11T15:42:38.924Z,-77
2018-10-11T15:45:05.116Z,-77
2018-10-11T15:47:31.273Z,-63
2018-10-11T15:49:58.202Z,-62
2018-10-11T15:52:24.390Z,-62
2018-10-11T15:54:50.618Z,-62
2018-10-11T15:57:16.796Z,-62
2018-10-11T15:59:43.725Z,-63
2018-10-11T16:02:09.907Z,-62
2018-10-11T16:04:36.077Z,-77
2018-10-11T16:07:02.651Z,-77
2018-10-11T16:09:28.927Z,-77
2018-10-11T16:11:55.059Z,-77
2018-10-11T16:14:21.213Z,-77
2018-10-11T16:16:48.153Z,-77
2018-10-11T16:19:14.316Z,-63
2018-10-11T16:21:40.481Z,-77
2018-10-11T16:24:06.651Z,-77
2018-10-11T16:26:33.585Z,-77
2018-10-11T16:28:59.743Z,-77
2018-10-11T16:31:25.900Z,-77
2018-10-11T16:33:52.055Z,-73
2018-10-11T16:36:18.222Z,-63
2018-10-11T16:38:44.374Z,-62
2018-10-11T16:41:10.554Z,-63
2018-10-11T16:43:36.744Z,-63
2018-10-11T16:46:02.910Z,-63
2018-10-11T16:48:29.856Z,-63
2018-10-11T16:50:56.026Z,-77
2018-10-11T16:53:22.234Z,-77
2018-10-11T16:55:48.409Z,-77
2018-10-11T16:58:14.589Z,-77
2018-10-11T17:00:40.768Z,-77
2018-10-11T17:03:06.967Z,-77
2018-10-11T17:05:33.136Z,-76
2018-10-11T17:07:59.338Z,-77
2018-10-11T17:10:25.515Z,-77
2018-10-11T17:12:52.463Z,-77
2018-10-11T17:15:18.753Z,-77
2018-10-11T17:17:45.727Z,-77
2018-10-11T17:20:11.891Z,-75
2018-10-11T17:22:38.070Z,-63
2018-10-11T17:25:04.232Z,-62
2018-10-11T17:27:30.432Z,-63
2018-10-11T17:29:56.597Z,-63
2018-10-11T17:32:22.761Z,-63
2018-10-11T17:34:48.941Z,-63
2018-10-11T17:37:15.105Z,-63
2018-10-11T17:39:41.262Z,-63
2018-10-11T17:42:07.474Z,-63
2018-10-11T17:44:33.648Z,-63
2018-10-11T17:46:59.846Z,-64
2018-10-11T17:49:26.039Z,-64
2018-10-11T17:51:52.226Z,-71
2018-10-11T17:54:18.405Z,-73
2018-10-11T17:56:44.624Z,-71
2018-10-11T17:59:10.770Z,-70
2018-10-11T18:01:36.939Z,-79
2018-10-11T18:04:03.138Z,-78
2018-10-11T18:06:29.326Z,-77
2018-10-11T18:08:55.543Z,-77
2018-10-11T18:11:21.728Z,-78
2018-10-11T18:13:47.917Z,-78
2018-10-11T18:16:14.175Z,-78
2018-10-11T18:18:40.289Z,-78
2018-10-11T18:21:06.637Z,-78
2018-10-11T18:23:33.576Z,-63
2018-10-11T18:25:59.738Z,-63
2018-10-11T18:28:25.907Z,-62
2018-10-11T18:30:52.083Z,-63
2018-10-11T18:33:19.016Z,-63
2018-10-11T18:35:45.212Z,-62
2018-10-11T18:38:11.360Z,-63
2018-10-11T18:40:37.525Z,-63
2018-10-11T18:43:03.701Z,-63
2018-10-11T18:45:29.862Z,-63
2018-10-11T18:47:56.019Z,-63
2018-10-11T18:50:22.176Z,-63
2018-10-11T18:52:48.351Z,-63
2018-10-11T18:55:14.547Z,-63
2018-10-11T18:57:40.739Z,-65
2018-10-11T19:00:06.939Z,-63
2018-10-11T19:02:33.130Z,-63
2018-10-11T19:04:59.301Z,-63
2018-10-11T19:07:25.478Z,-63
2018-10-11T19:09:51.652Z,-78
2018-10-11T19:14:50.150Z,-79
2018-10-11T19:17:16.333Z,-78
2018-10-11T19:19:44.009Z,-79
2018-10-11T19:22:10.179Z,-78
2018-10-11T19:24:36.401Z,-62
2018-10-11T19:27:02.587Z,-62
2018-10-11T19:29:28.763Z,-63
2018-10-11T19:31:54.949Z,-63
2018-10-11T19:34:21.112Z,-63
2018-10-11T19:36:47.294Z,-63
2018-10-11T19:39:13.484Z,-63
2018-10-11T19:41:39.660Z,-63
2018-10-11T19:44:05.815Z,-63
2018-10-11T19:46:31.988Z,-62
2018-10-11T19:48:58.217Z,-63
2018-10-11T19:51:24.398Z,-62
2018-10-11T19:53:50.568Z,-63
2018-10-11T19:56:16.795Z,-63
2018-10-11T19:58:42.946Z,-62
2018-10-11T20:01:09.123Z,-63
2018-10-11T20:03:35.293Z,-62
2018-10-11T20:06:01.494Z,-63
2018-10-11T20:08:27.715Z,-63
2018-10-11T20:10:56.734Z,-78
2018-10-11T20:13:22.906Z,-62
2018-10-11T20:15:49.077Z,-63
2018-10-11T20:18:15.304Z,-63
2018-10-11T20:20:41.471Z,-63
2018-10-11T20:23:07.837Z,-63
2018-10-11T20:25:34.003Z,-62
2018-10-11T20:28:02.681Z,-79
2018-10-11T20:30:28.840Z,-78
2018-10-11T20:32:54.995Z,-78
2018-10-11T20:35:21.161Z,-79
2018-10-11T20:37:47.317Z,-78
2018-10-11T20:40:13.495Z,-79
2018-10-11T20:42:39.679Z,-63
2018-10-11T20:45:05.858Z,-63
2018-10-11T20:47:32.028Z,-63
2018-10-11T20:49:59.694Z,-63
2018-10-11T20:52:27.403Z,-63
2018-10-11T20:54:53.573Z,-63
2018-10-11T20:57:19.828Z,-67
2018-10-11T20:59:46.757Z,-79
2018-10-11T21:02:14.438Z,-78
2018-10-11T21:04:40.615Z,-78
2018-10-11T21:07:06.781Z,-79
2018-10-11T21:09:32.940Z,-78
2018-10-11T21:11:59.133Z,-79
2018-10-11T21:14:25.317Z,-78
2018-10-11T21:16:51.517Z,-79
2018-10-11T21:19:17.684Z,-79
2018-10-11T21:21:43.854Z,-78
2018-10-11T21:24:10.924Z,-79
2018-10-11T21:26:37.102Z,-63
2018-10-11T21:29:03.291Z,-78
2018-10-11T21:31:32.664Z,-79
2018-10-11T21:33:59.609Z,-79
2018-10-11T21:36:26.560Z,-78
2018-10-11T21:38:56.660Z,-78
2018-10-11T21:41:22.822Z,-79
2018-10-11T21:43:49.098Z,-78
2018-10-11T21:48:47.632Z,-78
2018-10-11T21:51:14.568Z,-79
2018-10-11T21:53:40.734Z,-79
2018-10-11T21:56:08.677Z,-79
2018-10-11T21:58:34.847Z,-79
2018-10-11T22:01:01.031Z,-63
2018-10-11T22:03:27.210Z,-63
2018-10-11T22:05:53.454Z,-63
2018-10-11T22:08:19.638Z,-63
2018-10-11T22:10:45.823Z,-63
2018-10-11T22:13:11.992Z,-63
2018-10-11T22:15:38.167Z,-63
2018-10-11T22:18:04.340Z,-63
2018-10-11T22:20:30.513Z,-63
2018-10-11T22:22:56.679Z,-63
2018-10-11T22:25:23.161Z,-63
2018-10-11T22:27:49.342Z,-63
2018-10-11T22:30:16.262Z,-63
2018-10-11T22:32:42.429Z,-79
2018-10-11T22:37:40.724Z,-79
2018-10-11T22:42:38.631Z,-79
2018-10-11T22:45:04.798Z,-79
2018-10-11T22:47:30.970Z,-79
2018-10-11T22:49:57.154Z,-79
2018-10-11T22:52:23.324Z,-79
2018-10-11T22:54:49.495Z,-79
2018-10-11T22:57:15.650Z,-79
2018-10-11T22:59:41.821Z,-79
2018-10-11T23:02:07.981Z,-79
2018-10-11T23:04:34.153Z,-79
2018-10-11T23:07:00.341Z,-78
2018-10-11T23:09:26.507Z,-79
2018-10-11T23:11:53.454Z,-79
2018-10-11T23:14:19.610Z,-79
2018-10-11T23:16:45.789Z,-78
2018-10-11T23:19:11.950Z,-79
2018-10-11T23:21:38.119Z,-79
2018-10-11T23:24:04.284Z,-78
2018-10-11T23:26:31.226Z,-79
2018-10-11T23:28:57.399Z,-79
2018-10-11T23:31:23.586Z,-79
2018-10-11T23:33:49.748Z,-79
2018-10-11T23:36:15.921Z,-79
2018-10-11T23:38:42.074Z,-77
2018-10-11T23:41:08.242Z,-78
2018-10-11T23:43:34.411Z,-79
2018-10-11T23:46:01.342Z,-79
2018-10-11T23:48:27.515Z,-63
2018-10-11T23:50:53.682Z,-63
2018-10-11T23:53:19.870Z,-63
2018-10-11T23:55:46.034Z,-63
2018-10-11T23:58:12.220Z,-63
